createdAt,value
2023-03-07T00:01:08.909Z,-0.04
2023-03-07T00:03:37.112Z,-0.03
2023-03-07T00:06:09.060Z,-0.02
2023-03-07T00:08:36.529Z,0.02
2023-03-07T00:11:06.521Z,0.07
2023-03-07T00:13:34.919Z,0.12
2023-03-07T00:16:11.171Z,0.19
2023-03-07T00:18:38.181Z,0.19
2023-03-07T00:21:08.788Z,0.27
2023-03-07T00:23:38.096Z,0.30
2023-03-07T00:26:07.488Z,0.38
2023-03-07T00:28:35.515Z,0.41
2023-03-07T00:31:05.674Z,0.44
2023-03-07T00:33:32.683Z,0.42
2023-03-07T00:36:02.211Z,0.51
2023-03-07T00:38:31.090Z,0.54
2023-03-07T00:41:06.436Z,0.56
2023-03-07T00:43:34.238Z,0.53
2023-03-07T00:46:01.891Z,0.56
2023-03-07T00:48:29.440Z,0.56
2023-03-07T00:50:57.355Z,0.54
2023-03-07T00:53:25.284Z,0.54
2023-03-07T00:55:55.924Z,0.53
2023-03-07T00:58:23.325Z,0.57
2023-03-07T01:00:50.641Z,0.58
2023-03-07T01:03:18.169Z,0.57
2023-03-07T01:05:45.415Z,0.55
2023-03-07T01:08:12.874Z,0.63
2023-03-07T01:10:39.908Z,0.60
2023-03-07T01:13:07.113Z,0.64
2023-03-07T01:15:34.091Z,0.66
2023-03-07T01:18:01.035Z,0.65
2023-03-07T01:20:28.010Z,0.57
2023-03-07T01:22:54.869Z,0.62
2023-03-07T01:25:21.770Z,0.64
2023-03-07T01:27:48.645Z,0.63
2023-03-07T01:30:15.700Z,0.57
2023-03-07T01:32:42.692Z,0.67
2023-03-07T01:35:09.808Z,0.67
2023-03-07T01:37:36.867Z,0.63
2023-03-07T01:40:05.063Z,0.64
2023-03-07T01:42:32.428Z,0.70
2023-03-07T01:45:04.823Z,0.73
2023-03-07T01:47:31.728Z,0.73
2023-03-07T01:50:01.222Z,0.75
2023-03-07T01:52:34.992Z,0.74
2023-03-07T01:55:11.229Z,0.65
2023-03-07T01:57:41.196Z,0.75
2023-03-07T02:00:14.608Z,0.73
2023-03-07T02:02:45.988Z,0.71
2023-03-07T02:05:27.541Z,0.72
2023-03-07T02:08:21.305Z,0.70
2023-03-07T02:11:10.059Z,0.66
2023-03-07T02:13:52.415Z,0.66
2023-03-07T02:16:34.412Z,0.68
2023-03-07T02:19:32.809Z,0.67
2023-03-07T02:22:36.528Z,0.69
2023-03-07T02:25:17.231Z,0.70
2023-03-07T02:27:46.274Z,0.70
2023-03-07T02:30:13.319Z,0.69
2023-03-07T02:32:40.542Z,0.71
2023-03-07T02:35:15.729Z,0.70
2023-03-07T02:37:46.330Z,0.70
2023-03-07T02:40:16.826Z,0.72
2023-03-07T02:42:46.869Z,0.71
2023-03-07T02:45:17.803Z,0.71
2023-03-07T02:47:45.767Z,0.73
2023-03-07T02:50:14.149Z,0.73
2023-03-07T02:52:41.579Z,0.74
2023-03-07T02:55:09.554Z,0.75
2023-03-07T02:57:36.592Z,0.65
2023-03-07T03:00:07.422Z,0.74
2023-03-07T03:02:34.774Z,0.73
2023-03-07T03:05:01.797Z,0.69
2023-03-07T03:07:28.761Z,0.72
2023-03-07T03:09:55.724Z,0.73
2023-03-07T03:12:22.659Z,0.72
2023-03-07T03:14:49.654Z,0.64
2023-03-07T03:17:17.221Z,0.71
2023-03-07T03:19:44.097Z,0.77
2023-03-07T03:22:11.277Z,0.78
2023-03-07T03:24:42.516Z,0.76
2023-03-07T03:27:10.312Z,0.79
2023-03-07T03:29:37.319Z,0.79
2023-03-07T03:32:04.619Z,0.59
2023-03-07T03:34:31.619Z,0.86
2023-03-07T03:36:58.481Z,0.86
2023-03-07T03:39:25.461Z,0.86
2023-03-07T03:41:52.399Z,0.87
2023-03-07T03:44:19.330Z,0.88
2023-03-07T03:46:48.559Z,0.90
2023-03-07T03:49:17.116Z,0.85
2023-03-07T03:51:44.021Z,0.88
2023-03-07T03:54:10.917Z,0.86
2023-03-07T03:56:37.919Z,0.86
2023-03-07T03:59:04.988Z,0.76
2023-03-07T04:01:31.925Z,0.87
2023-03-07T04:03:59.478Z,0.84
2023-03-07T04:06:29.883Z,0.83
2023-03-07T04:08:57.422Z,0.86
2023-03-07T04:11:25.135Z,0.82
2023-03-07T04:13:52.527Z,0.82
2023-03-07T04:16:20.401Z,0.83
2023-03-07T04:18:47.368Z,0.85
2023-03-07T04:21:14.549Z,0.86
2023-03-07T04:23:41.502Z,0.88
2023-03-07T04:26:10.119Z,0.92
2023-03-07T04:28:43.382Z,0.88
2023-03-07T04:31:15.175Z,0.83
2023-03-07T04:33:42.885Z,0.92
2023-03-07T04:36:10.984Z,0.92
2023-03-07T04:38:39.367Z,0.90
2023-03-07T04:41:13.800Z,0.82
2023-03-07T04:43:40.892Z,0.95
2023-03-07T04:46:09.171Z,0.95
2023-03-07T04:48:36.399Z,0.98
2023-03-07T04:51:03.705Z,0.97
2023-03-07T04:53:30.560Z,0.93
2023-03-07T04:56:01.857Z,0.84
2023-03-07T04:58:30.751Z,0.99
2023-03-07T05:00:58.235Z,0.97
2023-03-07T05:03:26.417Z,0.95
2023-03-07T05:05:53.622Z,0.98
2023-03-07T05:08:21.288Z,0.91
2023-03-07T05:10:48.275Z,0.91
2023-03-07T05:13:15.183Z,0.88
2023-03-07T05:15:42.163Z,0.92
2023-03-07T05:18:09.108Z,0.89
2023-03-07T05:20:36.207Z,0.71
2023-03-07T05:23:03.087Z,0.82
2023-03-07T05:25:29.954Z,0.80
2023-03-07T05:27:56.924Z,0.79
2023-03-07T05:30:23.818Z,0.78
2023-03-07T05:32:51.650Z,0.44
2023-03-07T05:35:19.131Z,0.71
2023-03-07T05:37:46.051Z,0.69
2023-03-07T05:40:14.321Z,0.63
2023-03-07T05:42:41.354Z,0.58
2023-03-07T05:45:09.400Z,0.60
2023-03-07T05:47:36.471Z,0.61
2023-03-07T05:50:03.936Z,0.53
2023-03-07T05:52:30.843Z,0.61
2023-03-07T05:54:57.741Z,0.55
2023-03-07T05:57:24.726Z,0.63
2023-03-07T05:59:51.770Z,0.66
2023-03-07T06:02:18.748Z,0.70
2023-03-07T06:04:47.197Z,0.67
2023-03-07T06:07:14.329Z,0.75
2023-03-07T06:09:41.361Z,0.77
2023-03-07T06:12:10.411Z,0.80
2023-03-07T06:14:37.377Z,0.84
2023-03-07T06:17:05.933Z,0.89
2023-03-07T06:19:34.156Z,0.98
2023-03-07T06:22:01.232Z,1.05
2023-03-07T06:24:28.219Z,1.13
2023-03-07T06:26:55.064Z,1.19
2023-03-07T06:29:22.240Z,1.21
2023-03-07T06:31:49.218Z,1.31
2023-03-07T06:34:16.200Z,1.42
2023-03-07T06:36:43.159Z,1.45
2023-03-07T06:39:10.125Z,1.39
2023-03-07T06:41:37.091Z,1.57
2023-03-07T06:44:04.263Z,1.66
2023-03-07T06:46:31.974Z,1.69
2023-03-07T06:48:58.928Z,1.72
2023-03-07T06:51:25.963Z,1.90
2023-03-07T06:53:52.873Z,2.00
2023-03-07T06:56:19.920Z,2.05
2023-03-07T06:58:46.911Z,2.11
2023-03-07T07:01:21.664Z,2.23
2023-03-07T07:03:48.895Z,2.28
2023-03-07T07:06:16.189Z,2.32
2023-03-07T07:08:43.208Z,2.36
2023-03-07T07:11:10.194Z,2.41
2023-03-07T07:13:37.113Z,2.50
2023-03-07T07:16:06.154Z,2.54
2023-03-07T07:18:33.725Z,2.67
2023-03-07T07:21:00.728Z,2.69
2023-03-07T07:23:27.900Z,2.67
2023-03-07T07:25:54.817Z,2.81
2023-03-07T07:28:22.100Z,2.87
2023-03-07T07:30:49.037Z,2.90
2023-03-07T07:33:16.255Z,2.92
2023-03-07T07:35:44.354Z,3.00
2023-03-07T07:38:12.045Z,3.12
2023-03-07T07:40:39.512Z,3.19
2023-03-07T07:43:06.678Z,3.14
2023-03-07T07:45:33.645Z,3.30
2023-03-07T07:48:00.542Z,3.42
2023-03-07T07:50:27.499Z,3.37
2023-03-07T07:52:54.715Z,3.45
2023-03-07T07:55:22.219Z,3.59
2023-03-07T07:57:49.152Z,3.65
2023-03-07T08:00:21.269Z,3.63
2023-03-07T08:02:52.370Z,3.55
2023-03-07T08:05:20.663Z,3.66
2023-03-07T08:07:48.297Z,3.63
2023-03-07T08:10:16.310Z,3.73
2023-03-07T08:12:44.941Z,3.78
2023-03-07T08:15:12.773Z,3.85
2023-03-07T08:17:39.693Z,3.92
2023-03-07T08:20:08.718Z,4.01
2023-03-07T08:22:38.500Z,4.22
2023-03-07T08:25:06.684Z,4.41
2023-03-07T08:27:33.680Z,4.54
2023-03-07T08:30:00.971Z,4.60
2023-03-07T08:32:28.508Z,4.61
2023-03-07T08:34:55.450Z,4.59
2023-03-07T08:37:22.339Z,4.63
2023-03-07T08:39:49.345Z,4.57
2023-03-07T08:42:16.244Z,4.60
2023-03-07T08:44:43.239Z,4.79
2023-03-07T08:47:11.648Z,4.95
2023-03-07T08:49:38.558Z,5.00
2023-03-07T08:52:05.748Z,5.11
2023-03-07T08:54:32.783Z,5.25
2023-03-07T08:57:00.690Z,5.20
2023-03-07T08:59:27.641Z,5.33
2023-03-07T09:01:56.839Z,5.33
2023-03-07T09:04:24.708Z,5.25
2023-03-07T09:06:51.760Z,5.16
2023-03-07T09:09:18.693Z,5.13
2023-03-07T09:11:45.660Z,5.16
2023-03-07T09:14:12.599Z,5.24
2023-03-07T09:16:39.674Z,5.33
2023-03-07T09:19:06.733Z,5.45
2023-03-07T09:21:33.659Z,5.55
2023-03-07T09:24:00.567Z,5.59
2023-03-07T09:26:27.487Z,5.52
2023-03-07T09:28:54.384Z,5.35
2023-03-07T09:31:21.464Z,5.27
2023-03-07T09:33:48.524Z,5.23
2023-03-07T09:36:16.587Z,5.25
2023-03-07T09:38:43.619Z,5.33
2023-03-07T09:41:41.262Z,5.38
2023-03-07T09:44:18.362Z,5.51
2023-03-07T09:46:54.260Z,5.56
2023-03-07T09:49:38.454Z,5.56
2023-03-07T09:52:14.679Z,5.58
2023-03-07T09:54:47.116Z,5.49
2023-03-07T09:57:26.559Z,5.26
2023-03-07T10:00:19.308Z,5.18
2023-03-07T10:02:52.643Z,5.06
2023-03-07T10:05:25.576Z,5.00
2023-03-07T10:07:53.455Z,5.11
2023-03-07T10:10:27.306Z,5.19
2023-03-07T10:13:09.532Z,5.24
2023-03-07T10:15:49.124Z,5.37
2023-03-07T10:18:34.390Z,5.57
2023-03-07T10:21:48.425Z,5.61
2023-03-07T10:24:27.541Z,5.70
2023-03-07T10:27:05.728Z,5.70
2023-03-07T10:29:54.993Z,5.96
2023-03-07T10:32:45.617Z,6.16
2023-03-07T10:35:12.470Z,6.21
2023-03-07T10:37:50.628Z,6.30
2023-03-07T10:40:26.001Z,6.33
2023-03-07T10:42:54.852Z,6.07
2023-03-07T10:45:22.213Z,6.08
2023-03-07T10:47:49.182Z,6.05
2023-03-07T10:50:38.560Z,6.03
2023-03-07T10:53:19.384Z,5.93
2023-03-07T10:55:46.969Z,5.93
2023-03-07T10:58:19.951Z,5.72
2023-03-07T11:00:57.600Z,5.70
2023-03-07T11:03:42.561Z,5.73
2023-03-07T11:06:28.852Z,5.73
2023-03-07T11:08:59.091Z,5.50
2023-03-07T11:11:32.274Z,5.65
2023-03-07T11:14:13.375Z,5.72
2023-03-07T11:16:50.873Z,5.79
2023-03-07T11:19:40.909Z,5.87
2023-03-07T11:22:33.834Z,5.84
2023-03-07T11:25:16.049Z,5.99
2023-03-07T11:27:45.792Z,6.02
2023-03-07T11:30:33.732Z,5.86
2023-03-07T11:33:10.016Z,5.71
2023-03-07T11:35:59.357Z,5.89
2023-03-07T11:38:40.782Z,5.85
2023-03-07T11:41:30.802Z,6.05
2023-03-07T11:44:01.067Z,6.13
2023-03-07T11:47:13.633Z,5.83
2023-03-07T11:49:55.518Z,5.74
2023-03-07T11:52:48.996Z,5.63
2023-03-07T11:55:27.192Z,5.74
2023-03-07T11:58:29.336Z,5.88
2023-03-07T12:00:59.162Z,6.05
2023-03-07T12:03:35.100Z,5.96
2023-03-07T12:06:10.206Z,6.00
2023-03-07T12:08:54.291Z,6.02
2023-03-07T12:11:58.563Z,6.21
2023-03-07T12:14:31.320Z,6.24
2023-03-07T12:17:07.351Z,6.47
2023-03-07T12:20:11.924Z,6.59
2023-03-07T12:23:04.971Z,6.66
2023-03-07T12:25:43.766Z,6.89
2023-03-07T12:28:27.225Z,7.02
2023-03-07T12:31:02.465Z,6.84
2023-03-07T12:33:51.763Z,6.96
2023-03-07T12:36:44.853Z,6.86
2023-03-07T12:39:39.755Z,6.70
2023-03-07T12:42:28.184Z,6.82
2023-03-07T12:45:20.181Z,6.75
2023-03-07T12:48:09.335Z,6.58
2023-03-07T12:50:52.819Z,6.50
2023-03-07T12:53:30.490Z,6.47
2023-03-07T12:56:16.483Z,6.72
2023-03-07T12:58:51.052Z,6.74
2023-03-07T13:01:28.126Z,6.85
2023-03-07T13:04:18.188Z,6.96
2023-03-07T13:06:46.574Z,6.75
2023-03-07T13:09:27.993Z,6.82
2023-03-07T13:12:20.458Z,6.79
2023-03-07T13:14:56.438Z,6.71
2023-03-07T13:17:35.006Z,6.66
2023-03-07T13:20:31.154Z,6.77
2023-03-07T13:23:11.089Z,6.71
2023-03-07T13:25:42.470Z,6.68
2023-03-07T13:28:46.797Z,6.72
2023-03-07T13:31:16.518Z,6.75
2023-03-07T13:33:44.203Z,6.85
2023-03-07T13:36:32.969Z,6.61
2023-03-07T13:39:00.099Z,6.52
2023-03-07T13:41:56.445Z,6.65
2023-03-07T13:44:38.698Z,6.63
2023-03-07T13:47:44.782Z,6.63
2023-03-07T13:50:38.311Z,6.62
2023-03-07T13:53:18.798Z,6.65
2023-03-07T13:55:51.111Z,6.60
2023-03-07T13:58:26.736Z,6.71
2023-03-07T14:00:58.571Z,6.65
2023-03-07T14:03:31.199Z,6.55
2023-03-07T14:06:08.588Z,6.55
2023-03-07T14:08:35.949Z,6.58
2023-03-07T14:11:03.987Z,6.52
2023-03-07T14:13:49.689Z,6.58
2023-03-07T14:16:37.726Z,6.49
2023-03-07T14:19:17.116Z,6.34
2023-03-07T14:21:46.751Z,6.30
2023-03-07T14:24:39.471Z,6.21
2023-03-07T14:27:13.174Z,6.33
2023-03-07T14:29:52.345Z,6.34
2023-03-07T14:32:28.661Z,6.39
2023-03-07T14:34:55.914Z,6.39
2023-03-07T14:37:28.871Z,6.35
2023-03-07T14:39:58.590Z,6.41
2023-03-07T14:42:52.840Z,6.35
2023-03-07T14:45:25.881Z,6.46
2023-03-07T14:48:29.754Z,6.48
2023-03-07T14:51:02.418Z,6.40
2023-03-07T14:53:32.550Z,6.30
2023-03-07T14:56:00.638Z,6.40
2023-03-07T14:58:30.705Z,6.50
2023-03-07T15:00:58.682Z,6.46
2023-03-07T15:03:25.828Z,6.47
2023-03-07T15:05:55.941Z,6.50
2023-03-07T15:08:24.579Z,6.54
2023-03-07T15:11:07.190Z,6.56
2023-03-07T15:13:46.068Z,6.47
2023-03-07T15:16:20.029Z,6.47
2023-03-07T15:18:53.744Z,6.42
2023-03-07T15:21:24.517Z,6.47
2023-03-07T15:23:57.106Z,6.48
2023-03-07T15:26:26.919Z,6.50
2023-03-07T15:29:09.141Z,6.50
2023-03-07T15:31:54.793Z,6.32
2023-03-07T15:34:29.157Z,6.27
2023-03-07T15:37:13.159Z,6.07
2023-03-07T15:39:40.110Z,6.03
2023-03-07T15:42:21.781Z,5.99
2023-03-07T15:45:00.390Z,5.95
2023-03-07T15:47:30.152Z,5.93
2023-03-07T15:50:03.814Z,5.88
2023-03-07T15:52:37.299Z,5.89
2023-03-07T15:55:08.478Z,5.82
2023-03-07T15:58:08.063Z,5.78
2023-03-07T16:00:38.603Z,5.72
2023-03-07T16:03:21.056Z,5.50
2023-03-07T16:05:48.113Z,5.45
2023-03-07T16:08:17.002Z,5.37
2023-03-07T16:11:12.102Z,5.36
2023-03-07T16:13:42.881Z,5.27
2023-03-07T16:16:22.069Z,5.24
2023-03-07T16:18:50.966Z,5.20
2023-03-07T16:21:19.496Z,5.14
2023-03-07T16:23:47.340Z,5.07
2023-03-07T16:26:17.613Z,5.02
2023-03-07T16:28:44.819Z,4.95
2023-03-07T16:31:13.930Z,4.95
2023-03-07T16:33:40.856Z,4.84
2023-03-07T16:36:10.412Z,4.85
2023-03-07T16:38:37.369Z,4.77
2023-03-07T16:41:06.856Z,4.67
2023-03-07T16:43:38.623Z,4.74
2023-03-07T16:46:11.366Z,4.74
2023-03-07T16:48:38.299Z,4.67
2023-03-07T16:51:05.769Z,4.64
2023-03-07T16:53:32.633Z,4.64
2023-03-07T16:55:59.721Z,4.58
2023-03-07T16:58:31.562Z,4.52
2023-03-07T17:00:59.663Z,4.55
2023-03-07T17:03:29.900Z,4.54
2023-03-07T17:05:56.819Z,4.53
2023-03-07T17:08:23.732Z,4.51
2023-03-07T17:10:50.655Z,4.52
2023-03-07T17:13:18.987Z,4.49
2023-03-07T17:15:47.252Z,4.49
2023-03-07T17:18:14.222Z,4.50
2023-03-07T17:20:41.747Z,4.46
2023-03-07T17:23:08.953Z,4.49
2023-03-07T17:25:35.976Z,4.48
2023-03-07T17:28:07.442Z,4.45
2023-03-07T17:30:34.790Z,4.41
2023-03-07T17:33:01.709Z,4.45
2023-03-07T17:35:30.700Z,4.46
2023-03-07T17:37:57.843Z,4.48
2023-03-07T17:40:24.749Z,4.47
2023-03-07T17:42:52.432Z,4.39
2023-03-07T17:45:19.405Z,4.46
2023-03-07T17:47:50.546Z,4.39
2023-03-07T17:50:19.681Z,4.42
2023-03-07T17:52:46.610Z,4.39
2023-03-07T17:55:15.241Z,4.37
2023-03-07T17:57:42.255Z,4.34
2023-03-07T18:00:13.369Z,4.26
2023-03-07T18:02:44.324Z,4.29
2023-03-07T18:05:13.340Z,4.27
2023-03-07T18:07:43.294Z,4.25
2023-03-07T18:10:13.113Z,4.22
2023-03-07T18:12:40.270Z,4.20
2023-03-07T18:15:13.199Z,4.18
2023-03-07T18:17:47.834Z,4.13
2023-03-07T18:20:18.702Z,4.08
2023-03-07T18:22:46.328Z,4.10
2023-03-07T18:25:15.749Z,4.07
2023-03-07T18:27:43.188Z,4.06
2023-03-07T18:30:12.093Z,4.03
2023-03-07T18:32:39.371Z,4.00
2023-03-07T18:35:07.018Z,3.97
2023-03-07T18:37:34.055Z,3.93
2023-03-07T18:40:01.127Z,3.91
2023-03-07T18:42:28.179Z,3.88
2023-03-07T18:44:55.076Z,3.84
2023-03-07T18:47:21.950Z,3.77
2023-03-07T18:49:51.361Z,3.78
2023-03-07T18:52:19.022Z,3.76
2023-03-07T18:54:45.967Z,3.73
2023-03-07T18:57:12.868Z,3.74
2023-03-07T18:59:39.825Z,3.74
2023-03-07T19:02:06.781Z,3.74
2023-03-07T19:04:33.701Z,3.80
2023-03-07T19:07:00.857Z,3.83
2023-03-07T19:09:28.022Z,3.86
2023-03-07T19:11:55.030Z,3.88
2023-03-07T19:14:22.029Z,3.92
2023-03-07T19:16:49.095Z,3.96
2023-03-07T19:19:16.312Z,3.99
2023-03-07T19:21:43.229Z,4.01
2023-03-07T19:24:12.193Z,4.07
2023-03-07T19:26:40.323Z,4.17
2023-03-07T19:29:07.265Z,4.23
2023-03-07T19:31:35.263Z,4.29
2023-03-07T19:34:03.695Z,4.36
2023-03-07T19:36:33.201Z,4.40
2023-03-07T19:39:00.128Z,4.44
2023-03-07T19:41:29.405Z,4.44
2023-03-07T19:43:58.255Z,4.49
2023-03-07T19:46:25.984Z,4.46
2023-03-07T19:48:53.629Z,4.44
2023-03-07T19:51:23.153Z,4.47
2023-03-07T19:53:50.903Z,4.52
2023-03-07T19:56:25.711Z,4.56
2023-03-07T19:58:52.697Z,4.58
2023-03-07T20:01:21.236Z,4.59
2023-03-07T20:03:48.664Z,4.52
2023-03-07T20:06:22.124Z,4.57
2023-03-07T20:08:50.185Z,4.60
2023-03-07T20:11:20.175Z,4.61
2023-03-07T20:13:48.529Z,4.60
2023-03-07T20:16:17.134Z,4.63
2023-03-07T20:18:44.673Z,4.63
2023-03-07T20:21:13.996Z,4.65
2023-03-07T20:23:44.974Z,4.66
2023-03-07T20:26:16.003Z,4.67
2023-03-07T20:28:43.483Z,4.66
2023-03-07T20:31:11.027Z,4.66
2023-03-07T20:33:46.285Z,4.69
2023-03-07T20:36:28.240Z,4.69
2023-03-07T20:38:57.652Z,4.70
2023-03-07T20:41:27.110Z,4.69
2023-03-07T20:43:57.143Z,4.60
2023-03-07T20:46:24.113Z,4.68
2023-03-07T20:48:54.764Z,4.69
2023-03-07T20:51:24.629Z,4.69
2023-03-07T20:53:54.887Z,4.67
2023-03-07T20:56:23.349Z,4.67
2023-03-07T20:58:50.762Z,4.65
2023-03-07T21:01:19.429Z,4.65
2023-03-07T21:03:48.313Z,4.64
2023-03-07T21:06:16.318Z,4.62
2023-03-07T21:08:43.978Z,4.54
2023-03-07T21:11:13.277Z,4.65
2023-03-07T21:13:42.770Z,4.66
2023-03-07T21:16:23.649Z,4.64
2023-03-07T21:18:50.565Z,4.65
2023-03-07T21:21:20.125Z,4.66
2023-03-07T21:23:47.371Z,4.64
2023-03-07T21:26:17.075Z,4.65
2023-03-07T21:28:44.725Z,4.63
2023-03-07T21:31:14.324Z,4.61
2023-03-07T21:33:44.149Z,4.60
2023-03-07T21:36:14.084Z,4.58
2023-03-07T21:38:41.436Z,4.56
2023-03-07T21:41:08.767Z,4.53
2023-03-07T21:43:35.938Z,4.52
2023-03-07T21:46:07.353Z,4.40
2023-03-07T21:48:34.869Z,4.52
2023-03-07T21:51:02.445Z,4.52
2023-03-07T21:53:29.685Z,4.52
2023-03-07T21:55:58.214Z,4.51
2023-03-07T21:58:25.557Z,4.50
2023-03-07T22:00:55.392Z,4.49
2023-03-07T22:03:24.047Z,4.52
2023-03-07T22:05:51.843Z,4.53
2023-03-07T22:08:20.858Z,4.43
2023-03-07T22:11:02.085Z,4.52
2023-03-07T22:13:29.909Z,4.53
2023-03-07T22:15:57.871Z,4.53
2023-03-07T22:18:25.467Z,4.54
2023-03-07T22:20:52.905Z,4.48
2023-03-07T22:23:19.821Z,4.52
2023-03-07T22:25:46.846Z,4.53
2023-03-07T22:28:16.894Z,4.54
2023-03-07T22:30:43.807Z,4.53
2023-03-07T22:33:10.969Z,4.54
2023-03-07T22:35:37.888Z,4.51
2023-03-07T22:38:04.815Z,4.48
2023-03-07T22:40:31.725Z,4.50
2023-03-07T22:42:58.580Z,4.49
2023-03-07T22:45:25.536Z,4.51
2023-03-07T22:47:52.440Z,4.47
2023-03-07T22:50:19.410Z,4.48
2023-03-07T22:52:46.271Z,4.45
2023-03-07T22:55:13.179Z,4.46
2023-03-07T22:57:40.068Z,4.47
2023-03-07T23:00:08.398Z,4.45
2023-03-07T23:02:35.295Z,4.46
2023-03-07T23:05:02.223Z,4.46
2023-03-07T23:07:29.175Z,4.44
2023-03-07T23:09:56.042Z,4.44
2023-03-07T23:12:22.944Z,4.45
2023-03-07T23:14:49.856Z,4.14
2023-03-07T23:17:16.727Z,4.46
2023-03-07T23:19:43.641Z,4.45
2023-03-07T23:22:10.621Z,4.44
2023-03-07T23:24:37.516Z,4.38
2023-03-07T23:27:04.524Z,4.33
2023-03-07T23:29:31.432Z,4.37
2023-03-07T23:31:58.751Z,4.32
2023-03-07T23:34:25.603Z,4.32
2023-03-07T23:36:52.506Z,4.37
2023-03-07T23:39:19.632Z,4.39
2023-03-07T23:41:46.615Z,4.33
2023-03-07T23:44:13.646Z,4.37
2023-03-07T23:46:40.634Z,4.42
2023-03-07T23:49:07.529Z,4.44
2023-03-07T23:51:34.541Z,4.50
2023-03-07T23:54:01.423Z,4.43
2023-03-07T23:56:28.514Z,4.43
2023-03-07T23:58:55.430Z,4.45
